sensor_id;sensor_type;location;lat;lon;timestamp;temperature;humidity
64858;SHT30;51335;51.148;6.950;2022-11-09T00:00:06;15.21;81.06
64858;SHT30;51335;51.148;6.950;2022-11-09T00:00:37;15.18;81.07
64858;SHT30;51335;51.148;6.950;2022-11-09T00:01:07;15.17;81.06
64858;SHT30;51335;51.148;6.950;2022-11-09T00:01:37;15.15;81.14
64858;SHT30;51335;51.148;6.950;2022-11-09T00:02:08;15.20;81.16
64858;SHT30;51335;51.148;6.950;2022-11-09T00:02:38;15.18;81.00
64858;SHT30;51335;51.148;6.950;2022-11-09T00:03:09;15.15;81.08
64858;SHT30;51335;51.148;6.950;2022-11-09T00:03:39;15.15;81.11
64858;SHT30;51335;51.148;6.950;2022-11-09T00:04:10;15.14;81.15
64858;SHT30;51335;51.148;6.950;2022-11-09T00:04:40;15.15;81.19
64858;SHT30;51335;51.148;6.950;2022-11-09T00:05:10;15.20;81.17
64858;SHT30;51335;51.148;6.950;2022-11-09T00:05:41;15.21;80.91
64858;SHT30;51335;51.148;6.950;2022-11-09T00:06:11;15.22;80.92
64858;SHT30;51335;51.148;6.950;2022-11-09T00:06:41;15.20;80.94
64858;SHT30;51335;51.148;6.950;2022-11-09T00:07:12;15.20;80.92
64858;SHT30;51335;51.148;6.950;2022-11-09T00:07:42;15.21;80.93
64858;SHT30;51335;51.148;6.950;2022-11-09T00:08:12;15.21;81.04
64858;SHT30;51335;51.148;6.950;2022-11-09T00:08:42;15.21;81.01
64858;SHT30;51335;51.148;6.950;2022-11-09T00:09:13;15.17;80.85
64858;SHT30;51335;51.148;6.950;2022-11-09T00:09:43;15.17;81.02
64858;SHT30;51335;51.148;6.950;2022-11-09T00:10:13;15.18;81.05
64858;SHT30;51335;51.148;6.950;2022-11-09T00:10:44;15.17;80.93
64858;SHT30;51335;51.148;6.950;2022-11-09T00:11:14;15.18;80.98
64858;SHT30;51335;51.148;6.950;2022-11-09T00:11:44;15.14;81.07
64858;SHT30;51335;51.148;6.950;2022-11-09T00:12:15;15.11;81.05
64858;SHT30;51335;51.148;6.950;2022-11-09T00:12:45;15.11;81.07
64858;SHT30;51335;51.148;6.950;2022-11-09T00:13:15;15.10;81.04
64858;SHT30;51335;51.148;6.950;2022-11-09T00:13:46;15.07;81.19
64858;SHT30;51335;51.148;6.950;2022-11-09T00:14:17;15.07;81.24
64858;SHT30;51335;51.148;6.950;2022-11-09T00:14:47;15.03;81.35
64858;SHT30;51335;51.148;6.950;2022-11-09T00:15:17;15.03;81.42
64858;SHT30;51335;51.148;6.950;2022-11-09T00:15:47;15.05;81.33
64858;SHT30;51335;51.148;6.950;2022-11-09T00:16:20;15.10;81.32
64858;SHT30;51335;51.148;6.950;2022-11-09T00:16:50;15.12;81.17
64858;SHT30;51335;51.148;6.950;2022-11-09T00:17:20;15.12;81.10
64858;SHT30;51335;51.148;6.950;2022-11-09T00:17:51;15.11;81.02
64858;SHT30;51335;51.148;6.950;2022-11-09T00:18:21;15.14;81.09
64858;SHT30;51335;51.148;6.950;2022-11-09T00:18:51;15.15;80.99
64858;SHT30;51335;51.148;6.950;2022-11-09T00:19:22;15.11;81.06
64858;SHT30;51335;51.148;6.950;2022-11-09T00:19:53;15.14;81.08
64858;SHT30;51335;51.148;6.950;2022-11-09T00:20:23;15.15;81.10
64858;SHT30;51335;51.148;6.950;2022-11-09T00:20:53;15.10;81.06
64858;SHT30;51335;51.148;6.950;2022-11-09T00:21:24;15.11;81.17
64858;SHT30;51335;51.148;6.950;2022-11-09T00:21:54;15.12;81.13
64858;SHT30;51335;51.148;6.950;2022-11-09T00:22:25;15.10;81.10
64858;SHT30;51335;51.148;6.950;2022-11-09T00:22:55;15.07;81.21
64858;SHT30;51335;51.148;6.950;2022-11-09T00:23:25;15.08;81.26
64858;SHT30;51335;51.148;6.950;2022-11-09T00:23:55;15.05;81.31
64858;SHT30;51335;51.148;6.950;2022-11-09T00:24:26;15.05;81.22
64858;SHT30;51335;51.148;6.950;2022-11-09T00:24:56;15.01;81.25
64858;SHT30;51335;51.148;6.950;2022-11-09T00:25:26;15.03;81.31
64858;SHT30;51335;51.148;6.950;2022-11-09T00:26:01;15.03;81.25
64858;SHT30;51335;51.148;6.950;2022-11-09T00:26:31;15.03;81.40
64858;SHT30;51335;51.148;6.950;2022-11-09T00:27:01;15.03;81.45
64858;SHT30;51335;51.148;6.950;2022-11-09T00:27:32;15.03;81.30
64858;SHT30;51335;51.148;6.950;2022-11-09T00:28:02;15.03;81.36
64858;SHT30;51335;51.148;6.950;2022-11-09T00:28:33;15.01;81.41
64858;SHT30;51335;51.148;6.950;2022-11-09T00:29:03;15.00;81.51
64858;SHT30;51335;51.148;6.950;2022-11-09T00:29:33;14.97;81.54
64858;SHT30;51335;51.148;6.950;2022-11-09T00:30:04;15.00;81.54
64858;SHT30;51335;51.148;6.950;2022-11-09T00:30:35;14.98;81.52
64858;SHT30;51335;51.148;6.950;2022-11-09T00:31:08;15.00;81.44
64858;SHT30;51335;51.148;6.950;2022-11-09T00:31:39;14.98;81.56
64858;SHT30;51335;51.148;6.950;2022-11-09T00:32:09;14.98;81.51
64858;SHT30;51335;51.148;6.950;2022-11-09T00:32:39;15.00;81.44
64858;SHT30;51335;51.148;6.950;2022-11-09T00:33:10;15.01;81.50
64858;SHT30;51335;51.148;6.950;2022-11-09T00:33:40;14.97;81.52
64858;SHT30;51335;51.148;6.950;2022-11-09T00:34:10;14.97;81.61
64858;SHT30;51335;51.148;6.950;2022-11-09T00:34:41;14.95;81.57
64858;SHT30;51335;51.148;6.950;2022-11-09T00:35:11;14.94;81.61
64858;SHT30;51335;51.148;6.950;2022-11-09T00:35:41;14.97;81.66
64858;SHT30;51335;51.148;6.950;2022-11-09T00:36:12;14.94;81.64
64858;SHT30;51335;51.148;6.950;2022-11-09T00:36:42;14.90;81.72
64858;SHT30;51335;51.148;6.950;2022-11-09T00:37:12;14.91;81.69
64858;SHT30;51335;51.148;6.950;2022-11-09T00:37:42;14.93;81.76
64858;SHT30;51335;51.148;6.950;2022-11-09T00:38:13;14.95;81.75
64858;SHT30;51335;51.148;6.950;2022-11-09T00:38:47;14.88;81.67
64858;SHT30;51335;51.148;6.950;2022-11-09T00:39:17;14.93;81.78
64858;SHT30;51335;51.148;6.950;2022-11-09T00:39:48;14.90;81.86
64858;SHT30;51335;51.148;6.950;2022-11-09T00:40:18;14.88;81.90
64858;SHT30;51335;51.148;6.950;2022-11-09T00:40:48;14.91;81.77
64858;SHT30;51335;51.148;6.950;2022-11-09T00:41:19;14.90;81.76
64858;SHT30;51335;51.148;6.950;2022-11-09T00:41:50;14.90;81.75
64858;SHT30;51335;51.148;6.950;2022-11-09T00:42:20;14.84;81.85
64858;SHT30;51335;51.148;6.950;2022-11-09T00:42:50;14.83;81.93
64858;SHT30;51335;51.148;6.950;2022-11-09T00:43:21;14.79;82.01
64858;SHT30;51335;51.148;6.950;2022-11-09T00:43:51;14.85;81.99
64858;SHT30;51335;51.148;6.950;2022-11-09T00:44:22;14.84;81.99
64858;SHT30;51335;51.148;6.950;2022-11-09T00:44:52;14.85;81.99
64858;SHT30;51335;51.148;6.950;2022-11-09T00:45:22;14.85;82.00
64858;SHT30;51335;51.148;6.950;2022-11-09T00:45:52;14.85;81.96
64858;SHT30;51335;51.148;6.950;2022-11-09T00:46:23;14.88;81.98
64858;SHT30;51335;51.148;6.950;2022-11-09T00:46:53;14.90;81.98
64858;SHT30;51335;51.148;6.950;2022-11-09T00:47:23;14.91;81.96
64858;SHT30;51335;51.148;6.950;2022-11-09T00:47:53;14.93;81.84
64858;SHT30;51335;51.148;6.950;2022-11-09T00:48:24;14.97;81.73
64858;SHT30;51335;51.148;6.950;2022-11-09T00:48:54;14.93;81.71
64858;SHT30;51335;51.148;6.950;2022-11-09T00:49:25;14.95;81.68
64858;SHT30;51335;51.148;6.950;2022-11-09T00:49:55;14.93;81.80
64858;SHT30;51335;51.148;6.950;2022-11-09T00:50:25;14.94;81.64
64858;SHT30;51335;51.148;6.950;2022-11-09T00:50:56;14.98;81.59
64858;SHT30;51335;51.148;6.950;2022-11-09T00:51:26;14.98;81.60
64858;SHT30;51335;51.148;6.950;2022-11-09T00:51:57;14.95;81.61
64858;SHT30;51335;51.148;6.950;2022-11-09T00:52:27;14.94;81.70
64858;SHT30;51335;51.148;6.950;2022-11-09T00:52:58;14.97;81.66
64858;SHT30;51335;51.148;6.950;2022-11-09T00:53:29;14.94;81.70
64858;SHT30;51335;51.148;6.950;2022-11-09T00:53:59;14.95;81.68
64858;SHT30;51335;51.148;6.950;2022-11-09T00:54:30;14.95;81.63
64858;SHT30;51335;51.148;6.950;2022-11-09T00:55:00;14.97;81.63
64858;SHT30;51335;51.148;6.950;2022-11-09T00:55:30;14.94;81.69
64858;SHT30;51335;51.148;6.950;2022-11-09T00:56:10;14.90;81.80
64858;SHT30;51335;51.148;6.950;2022-11-09T00:56:40;14.91;81.80
64858;SHT30;51335;51.148;6.950;2022-11-09T00:57:12;14.91;81.85
64858;SHT30;51335;51.148;6.950;2022-11-09T00:57:42;14.91;81.86
64858;SHT30;51335;51.148;6.950;2022-11-09T00:58:12;14.90;81.89
64858;SHT30;51335;51.148;6.950;2022-11-09T00:58:42;14.90;81.92
64858;SHT30;51335;51.148;6.950;2022-11-09T00:59:13;14.87;81.91
64858;SHT30;51335;51.148;6.950;2022-11-09T00:59:43;14.85;82.05
64858;SHT30;51335;51.148;6.950;2022-11-09T01:00:21;14.87;82.01
64858;SHT30;51335;51.148;6.950;2022-11-09T01:00:53;14.87;81.98
64858;SHT30;51335;51.148;6.950;2022-11-09T01:01:24;14.84;82.08
64858;SHT30;51335;51.148;6.950;2022-11-09T01:01:54;14.90;82.13
64858;SHT30;51335;51.148;6.950;2022-11-09T01:02:24;14.81;82.04
64858;SHT30;51335;51.148;6.950;2022-11-09T01:02:55;14.83;82.14
64858;SHT30;51335;51.148;6.950;2022-11-09T01:03:25;14.79;82.31
64858;SHT30;51335;51.148;6.950;2022-11-09T01:03:56;14.83;82.30
64858;SHT30;51335;51.148;6.950;2022-11-09T01:04:26;14.80;82.24
64858;SHT30;51335;51.148;6.950;2022-11-09T01:04:56;14.80;82.30
64858;SHT30;51335;51.148;6.950;2022-11-09T01:05:26;14.84;82.30
64858;SHT30;51335;51.148;6.950;2022-11-09T01:06:00;14.83;82.28
64858;SHT30;51335;51.148;6.950;2022-11-09T01:06:30;14.80;82.32
64858;SHT30;51335;51.148;6.950;2022-11-09T01:07:00;14.79;82.39
64858;SHT30;51335;51.148;6.950;2022-11-09T01:07:31;14.73;82.43
64858;SHT30;51335;51.148;6.950;2022-11-09T01:08:01;14.64;82.67
64858;SHT30;51335;51.148;6.950;2022-11-09T01:08:32;14.64;82.85
64858;SHT30;51335;51.148;6.950;2022-11-09T01:09:03;14.67;82.79
64858;SHT30;51335;51.148;6.950;2022-11-09T01:09:33;14.66;82.72
64858;SHT30;51335;51.148;6.950;2022-11-09T01:10:05;14.70;82.70
64858;SHT30;51335;51.148;6.950;2022-11-09T01:10:39;14.70;82.69
64858;SHT30;51335;51.148;6.950;2022-11-09T01:11:09;14.66;82.72
64858;SHT30;51335;51.148;6.950;2022-11-09T01:11:40;14.67;82.78
64858;SHT30;51335;51.148;6.950;2022-11-09T01:12:10;14.66;82.82
64858;SHT30;51335;51.148;6.950;2022-11-09T01:12:41;14.70;82.76
64858;SHT30;51335;51.148;6.950;2022-11-09T01:13:13;14.69;82.75
64858;SHT30;51335;51.148;6.950;2022-11-09T01:13:44;14.69;82.81
64858;SHT30;51335;51.148;6.950;2022-11-09T01:14:14;14.62;82.79
64858;SHT30;51335;51.148;6.950;2022-11-09T01:14:44;14.62;83.02
64858;SHT30;51335;51.148;6.950;2022-11-09T01:15:15;14.69;82.97
64858;SHT30;51335;51.148;6.950;2022-11-09T01:15:47;14.64;82.83
64858;SHT30;51335;51.148;6.950;2022-11-09T01:16:20;14.64;82.94
64858;SHT30;51335;51.148;6.950;2022-11-09T01:16:50;14.62;82.93
64858;SHT30;51335;51.148;6.950;2022-11-09T01:17:21;14.59;82.95
64858;SHT30;51335;51.148;6.950;2022-11-09T01:17:51;14.62;83.07
64858;SHT30;51335;51.148;6.950;2022-11-09T01:18:22;14.56;83.08
64858;SHT30;51335;51.148;6.950;2022-11-09T01:18:56;14.53;83.20
64858;SHT30;51335;51.148;6.950;2022-11-09T01:19:27;14.53;83.21
64858;SHT30;51335;51.148;6.950;2022-11-09T01:19:57;14.52;83.27
64858;SHT30;51335;51.148;6.950;2022-11-09T01:20:27;14.50;83.36
64858;SHT30;51335;51.148;6.950;2022-11-09T01:20:58;14.52;83.27
64858;SHT30;51335;51.148;6.950;2022-11-09T01:21:28;14.53;83.32
64858;SHT30;51335;51.148;6.950;2022-11-09T01:21:58;14.53;83.18
64858;SHT30;51335;51.148;6.950;2022-11-09T01:22:28;14.59;83.13
64858;SHT30;51335;51.148;6.950;2022-11-09T01:22:59;14.56;83.17
64858;SHT30;51335;51.148;6.950;2022-11-09T01:23:29;14.55;83.19
64858;SHT30;51335;51.148;6.950;2022-11-09T01:24:00;14.55;83.25
64858;SHT30;51335;51.148;6.950;2022-11-09T01:24:30;14.57;83.21
64858;SHT30;51335;51.148;6.950;2022-11-09T01:25:00;14.59;83.12
64858;SHT30;51335;51.148;6.950;2022-11-09T01:25:31;14.56;83.11
64858;SHT30;51335;51.148;6.950;2022-11-09T01:26:04;14.60;83.14
64858;SHT30;51335;51.148;6.950;2022-11-09T01:26:35;14.57;83.18
64858;SHT30;51335;51.148;6.950;2022-11-09T01:27:05;14.59;83.21
64858;SHT30;51335;51.148;6.950;2022-11-09T01:27:35;14.63;83.10
64858;SHT30;51335;51.148;6.950;2022-11-09T01:28:06;14.63;83.07
64858;SHT30;51335;51.148;6.950;2022-11-09T01:28:37;14.59;83.07
64858;SHT30;51335;51.148;6.950;2022-11-09T01:29:07;14.60;83.12
64858;SHT30;51335;51.148;6.950;2022-11-09T01:29:37;14.57;83.21
64858;SHT30;51335;51.148;6.950;2022-11-09T01:30:08;14.56;83.21
64858;SHT30;51335;51.148;6.950;2022-11-09T01:30:41;14.55;83.23
64858;SHT30;51335;51.148;6.950;2022-11-09T01:31:15;14.52;83.35
64858;SHT30;51335;51.148;6.950;2022-11-09T01:31:45;14.55;83.39
64858;SHT30;51335;51.148;6.950;2022-11-09T01:32:16;14.53;83.42
64858;SHT30;51335;51.148;6.950;2022-11-09T01:32:46;14.52;83.45
64858;SHT30;51335;51.148;6.950;2022-11-09T01:33:16;14.55;83.45
64858;SHT30;51335;51.148;6.950;2022-11-09T01:33:47;14.50;83.29
64858;SHT30;51335;51.148;6.950;2022-11-09T01:34:17;14.52;83.47
64858;SHT30;51335;51.148;6.950;2022-11-09T01:34:48;14.52;83.50
64858;SHT30;51335;51.148;6.950;2022-11-09T01:35:18;14.56;83.46
64858;SHT30;51335;51.148;6.950;2022-11-09T01:35:48;14.57;83.37
64858;SHT30;51335;51.148;6.950;2022-11-09T01:36:22;14.52;83.38
64858;SHT30;51335;51.148;6.950;2022-11-09T01:36:53;14.55;83.34
64858;SHT30;51335;51.148;6.950;2022-11-09T01:37:23;14.55;83.28
64858;SHT30;51335;51.148;6.950;2022-11-09T01:37:53;14.56;83.23
64858;SHT30;51335;51.148;6.950;2022-11-09T01:38:24;14.59;83.11
64858;SHT30;51335;51.148;6.950;2022-11-09T01:38:54;14.59;83.16
64858;SHT30;51335;51.148;6.950;2022-11-09T01:39:24;14.57;83.15
64858;SHT30;51335;51.148;6.950;2022-11-09T01:39:54;14.53;83.21
64858;SHT30;51335;51.148;6.950;2022-11-09T01:40:26;14.53;83.36
64858;SHT30;51335;51.148;6.950;2022-11-09T01:40:57;14.53;83.37
64858;SHT30;51335;51.148;6.950;2022-11-09T01:41:28;14.55;83.36
64858;SHT30;51335;51.148;6.950;2022-11-09T01:41:58;14.56;83.39
64858;SHT30;51335;51.148;6.950;2022-11-09T01:42:28;14.57;83.36
64858;SHT30;51335;51.148;6.950;2022-11-09T01:43:14;14.53;83.26
64858;SHT30;51335;51.148;6.950;2022-11-09T01:44:08;14.49;83.39
64858;SHT30;51335;51.148;6.950;2022-11-09T01:44:39;14.52;83.48
64858;SHT30;51335;51.148;6.950;2022-11-09T01:45:29;14.49;83.31
64858;SHT30;51335;51.148;6.950;2022-11-09T01:46:13;14.50;83.42
64858;SHT30;51335;51.148;6.950;2022-11-09T01:47:22;14.46;83.56
64858;SHT30;51335;51.148;6.950;2022-11-09T01:48:04;14.45;83.59
64858;SHT30;51335;51.148;6.950;2022-11-09T01:49:58;14.43;83.63
64858;SHT30;51335;51.148;6.950;2022-11-09T01:50:03;14.40;83.67
64858;SHT30;51335;51.148;6.950;2022-11-09T01:50:41;14.39;83.71
64858;SHT30;51335;51.148;6.950;2022-11-09T01:51:26;14.36;83.76
64858;SHT30;51335;51.148;6.950;2022-11-09T01:52:03;14.33;83.81
64858;SHT30;51335;51.148;6.950;2022-11-09T01:52:37;14.35;83.89
64858;SHT30;51335;51.148;6.950;2022-11-09T01:53:15;14.36;83.77
64858;SHT30;51335;51.148;6.950;2022-11-09T01:53:49;14.35;83.80
64858;SHT30;51335;51.148;6.950;2022-11-09T01:54:25;14.35;83.90
64858;SHT30;51335;51.148;6.950;2022-11-09T01:55:00;14.32;83.85
64858;SHT30;51335;51.148;6.950;2022-11-09T01:55:31;14.26;83.97
64858;SHT30;51335;51.148;6.950;2022-11-09T01:56:04;14.25;84.02
64858;SHT30;51335;51.148;6.950;2022-11-09T01:56:36;14.21;84.20
64858;SHT30;51335;51.148;6.950;2022-11-09T01:57:13;14.21;84.26
64858;SHT30;51335;51.148;6.950;2022-11-09T01:57:58;14.21;84.23
64858;SHT30;51335;51.148;6.950;2022-11-09T01:58:32;14.21;84.31
64858;SHT30;51335;51.148;6.950;2022-11-09T01:59:09;14.18;84.24
64858;SHT30;51335;51.148;6.950;2022-11-09T01:59:45;14.18;84.27
64858;SHT30;51335;51.148;6.950;2022-11-09T02:00:16;14.18;84.18
64858;SHT30;51335;51.148;6.950;2022-11-09T02:00:48;14.16;84.24
64858;SHT30;51335;51.148;6.950;2022-11-09T02:01:20;14.19;84.28
64858;SHT30;51335;51.148;6.950;2022-11-09T02:01:51;14.24;84.11
64858;SHT30;51335;51.148;6.950;2022-11-09T02:02:22;14.21;84.04
64858;SHT30;51335;51.148;6.950;2022-11-09T02:02:59;14.24;84.09
64858;SHT30;51335;51.148;6.950;2022-11-09T02:03:37;14.22;84.15
64858;SHT30;51335;51.148;6.950;2022-11-09T02:04:19;14.22;84.07
64858;SHT30;51335;51.148;6.950;2022-11-09T02:04:59;14.24;84.19
64858;SHT30;51335;51.148;6.950;2022-11-09T02:05:32;14.24;84.09
64858;SHT30;51335;51.148;6.950;2022-11-09T02:06:05;14.21;84.11
64858;SHT30;51335;51.148;6.950;2022-11-09T02:06:37;14.22;84.19
64858;SHT30;51335;51.148;6.950;2022-11-09T02:07:08;14.26;84.14
64858;SHT30;51335;51.148;6.950;2022-11-09T02:07:39;14.24;84.10
64858;SHT30;51335;51.148;6.950;2022-11-09T02:08:12;14.26;84.01
64858;SHT30;51335;51.148;6.950;2022-11-09T02:08:45;14.24;84.07
64858;SHT30;51335;51.148;6.950;2022-11-09T02:09:24;14.22;84.11
64858;SHT30;51335;51.148;6.950;2022-11-09T02:10:06;14.24;84.03
64858;SHT30;51335;51.148;6.950;2022-11-09T02:10:44;14.25;83.96
64858;SHT30;51335;51.148;6.950;2022-11-09T02:11:18;14.24;83.94
64858;SHT30;51335;51.148;6.950;2022-11-09T02:11:48;14.19;83.99
64858;SHT30;51335;51.148;6.950;2022-11-09T02:12:20;14.21;84.12
64858;SHT30;51335;51.148;6.950;2022-11-09T02:12:52;14.22;84.07
64858;SHT30;51335;51.148;6.950;2022-11-09T02:13:24;14.25;83.91
64858;SHT30;51335;51.148;6.950;2022-11-09T02:13:57;14.32;83.70
64858;SHT30;51335;51.148;6.950;2022-11-09T02:14:29;14.35;83.54
64858;SHT30;51335;51.148;6.950;2022-11-09T02:15:02;14.32;83.37
64858;SHT30;51335;51.148;6.950;2022-11-09T02:15:32;14.33;83.44
64858;SHT30;51335;51.148;6.950;2022-11-09T02:16:03;14.35;83.34
64858;SHT30;51335;51.148;6.950;2022-11-09T02:16:33;14.29;83.30
64858;SHT30;51335;51.148;6.950;2022-11-09T02:17:04;14.33;83.32
64858;SHT30;51335;51.148;6.950;2022-11-09T02:17:36;14.26;83.37
64858;SHT30;51335;51.148;6.950;2022-11-09T02:18:07;14.28;83.38
64858;SHT30;51335;51.148;6.950;2022-11-09T02:18:49;14.33;83.32
64858;SHT30;51335;51.148;6.950;2022-11-09T02:19:20;14.35;83.09
64858;SHT30;51335;51.148;6.950;2022-11-09T02:19:50;14.36;82.89
64858;SHT30;51335;51.148;6.950;2022-11-09T02:20:21;14.36;82.84
64858;SHT30;51335;51.148;6.950;2022-11-09T02:20:54;14.33;82.83
64858;SHT30;51335;51.148;6.950;2022-11-09T02:21:26;14.32;82.95
64858;SHT30;51335;51.148;6.950;2022-11-09T02:21:57;14.29;83.07
64858;SHT30;51335;51.148;6.950;2022-11-09T02:22:27;14.32;83.11
64858;SHT30;51335;51.148;6.950;2022-11-09T02:22:58;14.32;83.09
64858;SHT30;51335;51.148;6.950;2022-11-09T02:23:28;14.30;83.13
64858;SHT30;51335;51.148;6.950;2022-11-09T02:23:59;14.33;83.09
64858;SHT30;51335;51.148;6.950;2022-11-09T02:24:31;14.36;82.96
64858;SHT30;51335;51.148;6.950;2022-11-09T02:25:02;14.36;82.90
64858;SHT30;51335;51.148;6.950;2022-11-09T02:25:33;14.40;82.78
64858;SHT30;51335;51.148;6.950;2022-11-09T02:26:09;14.37;82.80
64858;SHT30;51335;51.148;6.950;2022-11-09T02:26:50;14.42;82.78
64858;SHT30;51335;51.148;6.950;2022-11-09T02:27:21;14.40;82.65
64858;SHT30;51335;51.148;6.950;2022-11-09T02:27:51;14.37;82.60
64858;SHT30;51335;51.148;6.950;2022-11-09T02:28:21;14.40;82.68
64858;SHT30;51335;51.148;6.950;2022-11-09T02:28:53;14.35;82.70
64858;SHT30;51335;51.148;6.950;2022-11-09T02:29:27;14.39;82.67
64858;SHT30;51335;51.148;6.950;2022-11-09T02:29:59;14.33;82.67
64858;SHT30;51335;51.148;6.950;2022-11-09T02:30:32;14.36;82.73
64858;SHT30;51335;51.148;6.950;2022-11-09T02:31:03;14.33;82.74
64858;SHT30;51335;51.148;6.950;2022-11-09T02:31:39;14.35;82.71
64858;SHT30;51335;51.148;6.950;2022-11-09T02:32:18;14.35;82.75
64858;SHT30;51335;51.148;6.950;2022-11-09T02:32:49;14.40;82.59
64858;SHT30;51335;51.148;6.950;2022-11-09T02:33:19;14.42;82.43
64858;SHT30;51335;51.148;6.950;2022-11-09T02:34:21;14.40;82.42
64858;SHT30;51335;51.148;6.950;2022-11-09T02:34:52;14.36;82.46
64858;SHT30;51335;51.148;6.950;2022-11-09T02:35:22;14.40;82.42
64858;SHT30;51335;51.148;6.950;2022-11-09T02:35:53;14.37;82.51
64858;SHT30;51335;51.148;6.950;2022-11-09T02:36:23;14.35;82.58
64858;SHT30;51335;51.148;6.950;2022-11-09T02:36:53;14.35;82.68
64858;SHT30;51335;51.148;6.950;2022-11-09T02:37:48;14.35;82.67
64858;SHT30;51335;51.148;6.950;2022-11-09T02:38:18;14.30;82.62
64858;SHT30;51335;51.148;6.950;2022-11-09T02:38:50;14.35;82.59
64858;SHT30;51335;51.148;6.950;2022-11-09T02:39:24;14.32;82.57
64858;SHT30;51335;51.148;6.950;2022-11-09T02:39:56;14.35;82.70
64858;SHT30;51335;51.148;6.950;2022-11-09T02:40:31;14.29;82.69
64858;SHT30;51335;51.148;6.950;2022-11-09T02:41:01;14.32;82.75
64858;SHT30;51335;51.148;6.950;2022-11-09T02:41:35;14.40;82.57
64858;SHT30;51335;51.148;6.950;2022-11-09T02:42:13;14.42;82.29
64858;SHT30;51335;51.148;6.950;2022-11-09T02:42:45;14.40;82.23
64858;SHT30;51335;51.148;6.950;2022-11-09T02:43:17;14.47;82.09
64858;SHT30;51335;51.148;6.950;2022-11-09T02:43:49;14.45;82.10
64858;SHT30;51335;51.148;6.950;2022-11-09T02:44:22;14.40;82.16
64858;SHT30;51335;51.148;6.950;2022-11-09T02:44:58;14.40;82.24
64858;SHT30;51335;51.148;6.950;2022-11-09T02:45:28;14.42;82.25
64858;SHT30;51335;51.148;6.950;2022-11-09T02:45:59;14.39;82.24
64858;SHT30;51335;51.148;6.950;2022-11-09T02:46:34;14.42;82.25
64858;SHT30;51335;51.148;6.950;2022-11-09T02:47:04;14.43;82.12
64858;SHT30;51335;51.148;6.950;2022-11-09T02:47:34;14.47;81.91
64858;SHT30;51335;51.148;6.950;2022-11-09T02:48:05;14.50;81.94
64858;SHT30;51335;51.148;6.950;2022-11-09T02:48:35;14.49;81.91
64858;SHT30;51335;51.148;6.950;2022-11-09T02:49:05;14.47;81.97
64858;SHT30;51335;51.148;6.950;2022-11-09T02:49:36;14.50;81.86
64858;SHT30;51335;51.148;6.950;2022-11-09T02:50:07;14.47;81.83
64858;SHT30;51335;51.148;6.950;2022-11-09T02:50:37;14.46;81.84
64858;SHT30;51335;51.148;6.950;2022-11-09T02:51:07;14.47;81.80
64858;SHT30;51335;51.148;6.950;2022-11-09T02:51:38;14.47;81.79
64858;SHT30;51335;51.148;6.950;2022-11-09T02:52:08;14.46;81.89
64858;SHT30;51335;51.148;6.950;2022-11-09T02:52:38;14.43;81.95
64858;SHT30;51335;51.148;6.950;2022-11-09T02:53:09;14.42;81.87
64858;SHT30;51335;51.148;6.950;2022-11-09T02:53:39;14.46;81.76
64858;SHT30;51335;51.148;6.950;2022-11-09T02:54:09;14.49;81.73
64858;SHT30;51335;51.148;6.950;2022-11-09T02:54:39;14.53;81.50
64858;SHT30;51335;51.148;6.950;2022-11-09T02:55:10;14.50;81.47
64858;SHT30;51335;51.148;6.950;2022-11-09T02:55:40;14.50;81.57
64858;SHT30;51335;51.148;6.950;2022-11-09T02:56:11;14.49;81.57
64858;SHT30;51335;51.148;6.950;2022-11-09T02:56:41;14.47;81.59
64858;SHT30;51335;51.148;6.950;2022-11-09T02:57:11;14.47;81.58
64858;SHT30;51335;51.148;6.950;2022-11-09T02:57:42;14.45;81.77
64858;SHT30;51335;51.148;6.950;2022-11-09T02:58:12;14.50;81.56
64858;SHT30;51335;51.148;6.950;2022-11-09T02:58:42;14.55;81.36
64858;SHT30;51335;51.148;6.950;2022-11-09T02:59:12;14.57;81.29
64858;SHT30;51335;51.148;6.950;2022-11-09T02:59:43;14.56;81.33
64858;SHT30;51335;51.148;6.950;2022-11-09T03:00:13;14.53;81.44
64858;SHT30;51335;51.148;6.950;2022-11-09T03:00:43;14.52;81.48
64858;SHT30;51335;51.148;6.950;2022-11-09T03:01:14;14.49;81.53
64858;SHT30;51335;51.148;6.950;2022-11-09T03:01:44;14.47;81.61
64858;SHT30;51335;51.148;6.950;2022-11-09T03:02:14;14.42;81.71
64858;SHT30;51335;51.148;6.950;2022-11-09T03:02:45;14.49;81.64
64858;SHT30;51335;51.148;6.950;2022-11-09T03:03:15;14.49;81.58
64858;SHT30;51335;51.148;6.950;2022-11-09T03:03:45;14.53;81.35
64858;SHT30;51335;51.148;6.950;2022-11-09T03:04:15;14.47;81.41
64858;SHT30;51335;51.148;6.950;2022-11-09T03:04:46;14.46;81.52
64858;SHT30;51335;51.148;6.950;2022-11-09T03:05:16;14.40;81.64
64858;SHT30;51335;51.148;6.950;2022-11-09T03:05:46;14.42;81.67
64858;SHT30;51335;51.148;6.950;2022-11-09T03:06:17;14.40;81.74
64858;SHT30;51335;51.148;6.950;2022-11-09T03:06:47;14.37;81.81
64858;SHT30;51335;51.148;6.950;2022-11-09T03:07:18;14.37;81.83
64858;SHT30;51335;51.148;6.950;2022-11-09T03:07:48;14.39;81.86
64858;SHT30;51335;51.148;6.950;2022-11-09T03:08:18;14.37;81.90
64858;SHT30;51335;51.148;6.950;2022-11-09T03:08:49;14.37;81.83
64858;SHT30;51335;51.148;6.950;2022-11-09T03:09:19;14.36;81.87
64858;SHT30;51335;51.148;6.950;2022-11-09T03:09:49;14.30;81.85
64858;SHT30;51335;51.148;6.950;2022-11-09T03:10:19;14.28;82.08
64858;SHT30;51335;51.148;6.950;2022-11-09T03:10:50;14.24;82.21
64858;SHT30;51335;51.148;6.950;2022-11-09T03:11:20;14.22;82.40
64858;SHT30;51335;51.148;6.950;2022-11-09T03:11:50;14.22;82.40
64858;SHT30;51335;51.148;6.950;2022-11-09T03:12:20;14.24;82.35
64858;SHT30;51335;51.148;6.950;2022-11-09T03:12:51;14.25;82.37
64858;SHT30;51335;51.148;6.950;2022-11-09T03:13:22;14.30;82.28
64858;SHT30;51335;51.148;6.950;2022-11-09T03:13:53;14.25;82.20
64858;SHT30;51335;51.148;6.950;2022-11-09T03:14:23;14.19;82.36
64858;SHT30;51335;51.148;6.950;2022-11-09T03:14:58;14.21;82.56
64858;SHT30;51335;51.148;6.950;2022-11-09T03:15:28;14.26;82.53
64858;SHT30;51335;51.148;6.950;2022-11-09T03:16:03;14.26;82.51
64858;SHT30;51335;51.148;6.950;2022-11-09T03:16:35;14.19;82.51
64858;SHT30;51335;51.148;6.950;2022-11-09T03:17:05;14.22;82.73
64858;SHT30;51335;51.148;6.950;2022-11-09T03:17:36;14.24;82.76
64858;SHT30;51335;51.148;6.950;2022-11-09T03:18:06;14.19;82.76
64858;SHT30;51335;51.148;6.950;2022-11-09T03:18:36;14.21;82.83
64858;SHT30;51335;51.148;6.950;2022-11-09T03:19:07;14.18;82.88
64858;SHT30;51335;51.148;6.950;2022-11-09T03:19:37;14.19;82.93
64858;SHT30;51335;51.148;6.950;2022-11-09T03:20:08;14.16;82.97
64858;SHT30;51335;51.148;6.950;2022-11-09T03:20:38;14.19;83.02
64858;SHT30;51335;51.148;6.950;2022-11-09T03:21:08;14.21;82.96
64858;SHT30;51335;51.148;6.950;2022-11-09T03:21:39;14.19;82.98